Paxton, South Dakota
Current Conditions -  °F | °C
As of 3:53 PM on Thursday 27 Nov 2014 (Local Time) from KICR Reporting Station
Overcast Overcast  
Wind Chill: 27°   Ceiling: 10000
Heat Index: 36°   Visibility: 10mi
Dew Point: 19°   Wind: 14mph
Humidity: 50%   Direction: 150°SSE
Pressure: 30.03"   Gusts: NA
Location:  43.2341°N, 99.5045°W
Report Text: KICR 272153Z AUTO 15012KT 10SM OVC100 02/M07 A3003 RMK AO2 SLP193 T00221072
Loading
Personal Weather Stations






























Interactive Weather Map New forecast layout! Learn more

10-Day Weather Forecast

Advertisements
Track Severe Weather on mobile